Time;durP1;ratioP1;P1;durP2;ratioP2;P2;SDS_P1;SDS_P2;PMS_P1;PMS_P2;Temp;Humidity;BMP_temperature;BMP_pressure;BME280_temperature;BME280_humidity;BME280_pressure;Samples;Min_cycle;Max_cycle;Signal;HPM_P1;HPM_P2
2023/04/23 00:01:53;;;;;;;42.10;26.70;;;9.40;99.90;;;;;;5017955;28;20128;-82
2023/04/23 00:04:21;;;;;;;40.37;25.90;;;9.40;99.90;;;;;;5026874;28;20470;-82
2023/04/23 00:06:48;;;;;;;44.63;27.50;;;9.40;99.90;;;;;;5031021;28;20386;-82
2023/04/23 00:09:15;;;;;;;43.50;27.03;;;9.40;99.90;;;;;;5030826;28;20033;-82
2023/04/23 00:11:41;;;;;;;46.00;28.07;;;9.40;99.90;;;;;;5030863;28;20175;-82
2023/04/23 00:14:07;;;;;;;42.80;27.60;;;9.40;99.90;;;;;;5030514;28;20132;-82
2023/04/23 00:16:33;;;;;;;47.47;28.03;;;9.40;99.90;;;;;;5020812;28;20042;-81
2023/04/23 00:18:59;;;;;;;53.83;30.27;;;9.40;99.90;;;;;;5008177;28;20052;-82
2023/04/23 00:21:26;;;;;;;44.00;29.10;;;9.40;99.90;;;;;;5030031;28;20047;-82
2023/04/23 00:23:52;;;;;;;48.53;28.40;;;9.40;99.90;;;;;;5030438;28;20436;-82
2023/04/23 00:26:17;;;;;;;47.60;28.90;;;9.30;99.90;;;;;;5029829;28;20041;-82
2023/04/23 00:28:43;;;;;;;44.53;27.80;;;9.30;99.90;;;;;;5014227;28;20075;-82
2023/04/23 00:31:09;;;;;;;39.17;26.67;;;9.30;99.90;;;;;;5013903;28;20123;-82
2023/04/23 00:33:35;;;;;;;43.70;27.83;;;9.30;99.90;;;;;;5030544;28;20033;-82
2023/04/23 00:36:01;;;;;;;46.40;27.73;;;9.30;99.90;;;;;;5030344;28;20048;-82
2023/04/23 00:38:27;;;;;;;43.63;27.37;;;9.30;99.90;;;;;;5014197;28;20048;-82
2023/04/23 00:40:53;;;;;;;47.23;28.13;;;9.20;99.90;;;;;;5030400;28;20037;-82
2023/04/23 00:43:19;;;;;;;39.17;25.93;;;9.20;99.90;;;;;;5030386;28;20038;-82
2023/04/23 00:45:46;;;;;;;45.27;27.30;;;9.20;99.90;;;;;;5030235;28;20129;-82
2023/04/23 00:48:12;;;;;;;42.87;26.87;;;9.20;99.90;;;;;;5030576;28;20091;-82
2023/04/23 00:50:38;;;;;;;49.60;28.23;;;9.20;99.90;;;;;;5030776;28;20076;-82
2023/04/23 00:53:03;;;;;;;47.63;28.67;;;9.20;99.90;;;;;;5030306;28;20485;-82
2023/04/23 00:55:29;;;;;;;43.33;26.90;;;9.10;99.90;;;;;;5014163;28;20378;-82
2023/04/23 00:57:55;;;;;;;52.07;30.50;;;9.10;99.90;;;;;;5030107;28;20042;-82
2023/04/23 01:00:21;;;;;;;46.50;28.03;;;9.10;99.90;;;;;;5032144;28;20480;-82
2023/04/23 01:02:49;;;;;;;45.43;29.67;;;9.00;99.90;;;;;;5034003;28;20033;-82
2023/04/23 01:05:16;;;;;;;49.60;30.17;;;9.00;99.90;;;;;;5025606;28;20042;-82
2023/04/23 01:07:43;;;;;;;49.50;29.40;;;9.00;99.90;;;;;;5033889;28;20598;-82
2023/04/23 01:10:11;;;;;;;41.10;27.33;;;9.00;99.90;;;;;;5032221;28;20091;-82
2023/04/23 01:12:36;;;;;;;48.27;29.10;;;8.90;99.90;;;;;;5017193;28;20048;-82
2023/04/23 01:15:04;;;;;;;46.83;27.80;;;8.90;99.90;;;;;;5034710;28;20034;-82
2023/04/23 01:17:31;;;;;;;46.47;29.27;;;8.80;99.90;;;;;;5000517;28;20033;-82
2023/04/23 01:19:57;;;;;;;47.77;29.00;;;8.80;99.90;;;;;;5016748;28;20098;-82
2023/04/23 01:22:23;;;;;;;48.23;28.70;;;8.80;99.90;;;;;;5016496;28;20669;-82
2023/04/23 01:24:49;;;;;;;44.23;26.73;;;8.70;99.90;;;;;;5016484;28;20049;-81
2023/04/23 01:27:15;;;;;;;43.97;27.57;;;8.70;99.90;;;;;;5032940;28;20045;-82
2023/04/23 01:29:41;;;;;;;50.00;30.27;;;8.70;99.90;;;;;;5024512;28;20521;-81
2023/04/23 01:32:07;;;;;;;45.23;28.40;;;8.60;99.90;;;;;;5031059;28;20041;-82
2023/04/23 01:34:34;;;;;;;46.07;29.40;;;8.60;99.90;;;;;;5033736;28;20049;-82
2023/04/23 01:37:02;;;;;;;49.47;29.60;;;8.60;99.90;;;;;;5016832;28;20117;-82
2023/04/23 01:39:27;;;;;;;48.67;29.57;;;8.60;99.90;;;;;;5033213;28;20048;-82
2023/04/23 01:41:54;;;;;;;47.30;29.87;;;8.50;99.90;;;;;;5033372;28;20041;-82
2023/04/23 01:44:20;;;;;;;51.93;31.07;;;8.50;99.90;;;;;;5033528;28;20392;-82
2023/04/23 01:46:45;;;;;;;45.50;28.47;;;8.50;99.90;;;;;;5034591;28;20041;-82
2023/04/23 01:49:12;;;;;;;50.67;30.23;;;8.50;99.90;;;;;;5033368;28;20080;-82
2023/04/23 01:51:37;;;;;;;48.37;29.77;;;8.50;99.90;;;;;;5033055;28;20077;-82
2023/04/23 01:54:03;;;;;;;53.90;32.53;;;8.50;99.90;;;;;;5033093;28;20103;-82
2023/04/23 01:56:29;;;;;;;54.40;32.43;;;8.50;99.90;;;;;;5033096;28;20052;-82
2023/04/23 01:58:55;;;;;;;54.83;31.80;;;8.50;99.90;;;;;;5032941;28;20493;-82
2023/04/23 02:01:21;;;;;;;53.13;32.43;;;8.40;99.90;;;;;;5032902;28;20053;-82
2023/04/23 02:03:49;;;;;;;51.03;32.40;;;8.50;99.90;;;;;;5033216;28;20052;-82
2023/04/23 02:06:15;;;;;;;64.00;35.90;;;8.40;99.90;;;;;;5029433;28;20048;-82
2023/04/23 02:08:42;;;;;;;61.83;35.13;;;8.40;99.90;;;;;;5016202;28;20045;-82
2023/04/23 02:11:08;;;;;;;62.67;37.27;;;8.40;99.90;;;;;;5031908;28;20125;-82
2023/04/23 02:13:33;;;;;;;63.90;36.37;;;8.40;99.90;;;;;;5009163;28;20125;-82
2023/04/23 02:15:59;;;;;;;75.20;39.67;;;8.40;99.90;;;;;;5027476;28;20045;-82
2023/04/23 02:18:25;;;;;;;60.30;36.17;;;8.40;99.90;;;;;;5031874;28;20042;-82
2023/04/23 02:20:51;;;;;;;61.33;36.37;;;8.30;99.90;;;;;;5032226;28;20138;-82
2023/04/23 02:23:17;;;;;;;65.93;37.83;;;8.40;99.90;;;;;;5015889;28;20041;-82
2023/04/23 02:25:42;;;;;;;64.73;36.60;;;8.30;99.90;;;;;;5032577;28;20069;-82
2023/04/23 02:28:10;;;;;;;59.47;36.03;;;8.30;99.90;;;;;;5032348;28;20723;-82
2023/04/23 02:30:36;;;;;;;60.83;34.73;;;8.30;99.90;;;;;;5010107;28;20057;-82
2023/04/23 02:33:02;;;;;;;57.27;33.00;;;8.30;99.90;;;;;;5002160;28;20033;-82
2023/04/23 02:35:29;;;;;;;58.63;33.70;;;8.20;99.90;;;;;;5032231;28;20098;-82
2023/04/23 02:37:55;;;;;;;55.13;32.77;;;8.20;99.90;;;;;;5032474;28;20130;-82
2023/04/23 02:40:20;;;;;;;54.23;33.07;;;8.20;99.90;;;;;;5032122;28;20934;-82
2023/04/23 02:42:47;;;;;;;58.30;34.03;;;8.10;99.90;;;;;;5024347;28;20038;-82
2023/04/23 02:45:12;;;;;;;62.33;36.90;;;8.10;99.90;;;;;;5005880;28;20528;-82
2023/04/23 02:47:38;;;;;;;56.47;34.30;;;8.10;99.90;;;;;;5030154;28;20053;-82
2023/04/23 02:50:05;;;;;;;61.10;36.07;;;8.10;99.90;;;;;;5029868;28;20742;-82
2023/04/23 02:52:32;;;;;;;64.00;36.90;;;8.00;99.90;;;;;;5029888;28;20124;-82
2023/04/23 02:54:59;;;;;;;63.37;37.00;;;8.00;99.90;;;;;;5029823;28;20041;-82
2023/04/23 02:57:24;;;;;;;62.07;35.77;;;8.00;99.90;;;;;;5029611;28;20527;-82
2023/04/23 02:59:50;;;;;;;91.20;43.23;;;8.00;99.90;;;;;;5029789;28;20038;-82
2023/04/23 03:02:16;;;;;;;53.03;31.40;;;8.00;99.90;;;;;;5029626;28;20477;-82
2023/04/23 03:04:41;;;;;;;53.63;31.73;;;7.90;99.90;;;;;;5031104;28;20041;-82
2023/04/23 03:07:07;;;;;;;51.97;31.30;;;7.80;99.90;;;;;;5031556;28;20064;-81
2023/04/23 03:09:33;;;;;;;59.03;34.90;;;7.80;99.90;;;;;;5031526;28;20470;-82
2023/04/23 03:11:58;;;;;;;59.73;35.73;;;7.80;99.90;;;;;;5031695;28;20095;-82
2023/04/23 03:14:24;;;;;;;63.80;37.40;;;7.80;99.90;;;;;;5015005;28;20041;-82
2023/04/23 03:16:50;;;;;;;50.80;31.40;;;7.80;99.90;;;;;;5015044;28;20033;-82
2023/04/23 03:19:16;;;;;;;49.07;31.27;;;7.80;99.90;;;;;;5013374;28;20054;-82
2023/04/23 03:21:41;;;;;;;48.20;29.33;;;7.70;99.90;;;;;;5031576;28;20045;-82
2023/04/23 03:24:07;;;;;;;52.30;30.97;;;7.60;99.90;;;;;;5031074;28;20044;-82
2023/04/23 03:26:33;;;;;;;55.80;33.47;;;7.60;99.90;;;;;;4992194;28;20406;-82
2023/04/23 03:28:59;;;;;;;66.17;37.63;;;7.60;99.90;;;;;;4983614;28;20052;-82
2023/04/23 03:31:25;;;;;;;49.70;29.40;;;7.60;99.90;;;;;;5014929;28;20049;-82
2023/04/23 03:33:50;;;;;;;50.27;30.20;;;7.70;99.90;;;;;;5031131;28;20565;-82
2023/04/23 03:36:16;;;;;;;64.80;37.43;;;7.70;99.90;;;;;;5014678;28;20405;-81
2023/04/23 03:38:42;;;;;;;71.27;40.63;;;7.70;99.90;;;;;;5031010;28;20689;-82
2023/04/23 03:41:08;;;;;;;175.97;56.47;;;7.70;99.90;;;;;;5030945;28;20044;-82
2023/04/23 03:43:34;;;;;;;90.20;47.30;;;7.80;99.90;;;;;;5031001;28;20088;-82
2023/04/23 03:45:59;;;;;;;98.47;49.80;;;7.80;99.90;;;;;;5030692;28;20497;-82
2023/04/23 03:48:25;;;;;;;136.93;51.63;;;7.90;99.90;;;;;;5030477;28;20052;-82
2023/04/23 03:50:51;;;;;;;126.77;53.63;;;7.90;99.90;;;;;;5030535;28;20037;-82
2023/04/23 03:53:17;;;;;;;250.20;66.23;;;7.90;99.90;;;;;;5030561;28;20431;-82
2023/04/23 03:55:43;;;;;;;277.17;69.10;;;8.00;99.90;;;;;;5014306;28;20057;-82
2023/04/23 03:58:09;;;;;;;205.30;62.83;;;8.00;99.90;;;;;;4995139;28;20512;-82
2023/04/23 04:00:35;;;;;;;157.60;60.27;;;8.00;99.90;;;;;;5021626;28;20493;-82
2023/04/23 04:03:01;;;;;;;135.57;59.70;;;8.10;99.90;;;;;;5030012;28;20045;-82
2023/04/23 04:05:27;;;;;;;119.77;57.70;;;8.10;99.90;;;;;;5030613;28;20037;-82
2023/04/23 04:07:53;;;;;;;264.87;73.27;;;8.10;99.90;;;;;;5030378;28;20076;-82
2023/04/23 04:10:19;;;;;;;120.37;58.03;;;8.10;99.90;;;;;;5030448;28;20049;-82
2023/04/23 04:12:46;;;;;;;122.27;58.27;;;8.10;99.90;;;;;;5014326;28;20124;-81
2023/04/23 04:15:13;;;;;;;124.23;58.30;;;8.10;99.90;;;;;;5014393;28;20124;-82
2023/04/23 04:17:39;;;;;;;111.53;56.23;;;8.10;99.90;;;;;;5030176;28;20073;-82
2023/04/23 04:20:07;;;;;;;106.53;55.27;;;8.10;99.90;;;;;;5030077;28;20076;-82
2023/04/23 04:22:33;;;;;;;312.83;70.97;;;8.10;99.90;;;;;;5022661;28;20049;-82
2023/04/23 04:24:58;;;;;;;135.83;52.83;;;8.10;99.90;;;;;;5029916;28;20041;-82
2023/04/23 04:27:24;;;;;;;315.13;67.47;;;8.10;99.90;;;;;;5029985;28;20148;-81
2023/04/23 04:29:50;;;;;;;257.53;62.40;;;8.10;99.90;;;;;;5029608;28;20045;-82
2023/04/23 04:32:16;;;;;;;157.83;53.60;;;8.10;99.90;;;;;;5002130;28;20091;-82
2023/04/23 04:34:42;;;;;;;234.00;55.27;;;8.00;99.90;;;;;;5031228;28;20452;-82
2023/04/23 04:37:09;;;;;;;96.30;44.13;;;8.00;99.90;;;;;;5034162;28;20037;-82
2023/04/23 04:39:35;;;;;;;140.30;46.80;;;8.00;99.90;;;;;;5033631;28;20112;-82
2023/04/23 04:42:02;;;;;;;153.90;47.20;;;8.00;99.90;;;;;;5033525;28;20084;-82
2023/04/23 04:44:29;;;;;;;160.77;50.80;;;8.00;99.90;;;;;;5033826;28;20110;-82
2023/04/23 04:46:55;;;;;;;173.10;51.93;;;8.00;99.90;;;;;;5033789;28;20049;-82
2023/04/23 04:49:21;;;;;;;169.63;53.93;;;7.90;99.90;;;;;;5033959;28;20041;-82
2023/04/23 04:51:47;;;;;;;94.23;48.13;;;8.00;99.90;;;;;;5017514;28;20076;-82
2023/04/23 04:54:12;;;;;;;171.40;55.90;;;8.00;99.90;;;;;;5016416;28;20684;-82
2023/04/23 04:56:39;;;;;;;145.70;54.13;;;7.90;99.90;;;;;;5033284;28;20045;-82
2023/04/23 04:59:04;;;;;;;142.63;54.33;;;7.90;99.90;;;;;;5033523;28;20076;-82
2023/04/23 05:01:32;;;;;;;93.30;50.47;;;7.90;99.90;;;;;;5033672;28;20488;-82
2023/04/23 05:03:58;;;;;;;144.33;58.70;;;8.00;99.90;;;;;;5017470;28;20042;-81
2023/04/23 05:06:24;;;;;;;87.27;49.50;;;8.00;99.90;;;;;;5029408;28;20703;-82
2023/04/23 05:08:50;;;;;;;90.20;50.87;;;8.00;99.90;;;;;;4997958;28;20049;-82
2023/04/23 05:11:20;;;;;;;103.67;53.93;;;8.10;99.90;;;;;;5033531;28;20049;-82
2023/04/23 05:13:48;;;;;;;120.77;59.03;;;8.20;99.90;;;;;;5033423;28;20449;-82
2023/04/23 05:16:14;;;;;;;104.93;55.33;;;8.30;99.90;;;;;;5033397;28;20065;-82
2023/04/23 05:18:41;;;;;;;103.67;56.83;;;8.40;99.90;;;;;;5016804;28;20046;-82
2023/04/23 05:21:07;;;;;;;128.47;61.53;;;8.50;99.90;;;;;;5033484;28;20041;-82
2023/04/23 05:23:34;;;;;;;115.23;61.13;;;8.50;99.90;;;;;;5020971;28;20112;-82
2023/04/23 05:26:02;;;;;;;125.37;63.20;;;8.60;99.90;;;;;;5006189;28;20124;-82
2023/04/23 05:28:28;;;;;;;114.00;60.20;;;8.70;99.90;;;;;;5016806;28;20052;-82
2023/04/23 05:30:55;;;;;;;126.40;63.67;;;8.70;99.90;;;;;;5026164;28;20412;-82
2023/04/23 05:33:21;;;;;;;117.97;61.23;;;8.80;99.90;;;;;;4995141;28;20426;-82
2023/04/23 05:35:46;;;;;;;116.07;60.50;;;8.80;99.90;;;;;;4995672;28;20080;-81
2023/04/23 05:38:12;;;;;;;119.93;60.13;;;8.80;99.90;;;;;;5029315;28;20452;-82
2023/04/23 05:40:38;;;;;;;110.80;58.73;;;8.80;99.90;;;;;;5033033;28;20064;-81
2023/04/23 05:43:03;;;;;;;109.37;58.73;;;8.80;99.90;;;;;;5016217;28;20052;-82
2023/04/23 05:45:29;;;;;;;110.53;59.10;;;8.80;99.90;;;;;;5013732;28;20067;-81
2023/04/23 05:47:55;;;;;;;99.07;53.97;;;8.90;99.90;;;;;;5032433;28;20075;-82
2023/04/23 05:50:21;;;;;;;104.03;57.27;;;8.90;99.90;;;;;;5021315;28;20053;-82
2023/04/23 05:52:47;;;;;;;104.67;57.57;;;8.90;99.90;;;;;;5022076;28;20076;-82
2023/04/23 05:55:14;;;;;;;110.30;57.23;;;9.00;99.90;;;;;;5007292;28;20042;-81
2023/04/23 05:57:40;;;;;;;106.43;57.37;;;9.00;99.90;;;;;;5001061;28;20125;-81
2023/04/23 06:00:10;;;;;;;108.90;58.20;;;9.10;99.90;;;;;;5032188;28;20121;-81
2023/04/23 06:02:37;;;;;;;110.53;58.50;;;9.10;99.90;;;;;;5032239;28;20799;-82
2023/04/23 06:05:03;;;;;;;105.93;57.00;;;9.10;99.90;;;;;;5031947;28;20112;-82
2023/04/23 06:07:29;;;;;;;103.90;56.60;;;9.20;99.90;;;;;;5026972;28;20071;-82
2023/04/23 06:09:55;;;;;;;99.33;54.40;;;9.20;99.90;;;;;;5026354;28;20061;-81
2023/04/23 06:12:21;;;;;;;97.97;53.90;;;9.20;99.90;;;;;;5032325;28;20037;-82
2023/04/23 06:14:46;;;;;;;107.37;57.17;;;9.30;99.90;;;;;;5032168;28;20128;-81
2023/04/23 06:17:12;;;;;;;107.10;55.60;;;9.40;99.90;;;;;;5014553;28;20038;-81
2023/04/23 06:19:38;;;;;;;106.93;55.03;;;9.50;99.90;;;;;;5002089;28;20085;-81
2023/04/23 06:22:04;;;;;;;100.33;55.63;;;9.70;99.90;;;;;;5005876;28;20107;-81
2023/04/23 06:24:31;;;;;;;102.20;53.73;;;9.80;99.90;;;;;;5025185;28;20131;-81
2023/04/23 06:26:56;;;;;;;100.30;54.00;;;9.90;99.90;;;;;;4987445;28;20432;-82
2023/04/23 06:29:22;;;;;;;101.87;54.90;;;10.00;99.90;;;;;;5023993;28;20053;-82
2023/04/23 06:31:48;;;;;;;92.37;50.13;;;10.10;99.90;;;;;;5014360;28;20042;-82
2023/04/23 06:34:14;;;;;;;93.50;50.43;;;10.20;99.90;;;;;;5000784;28;20560;-82
2023/04/23 06:36:39;;;;;;;89.33;50.37;;;10.30;99.90;;;;;;4994516;28;20121;-82
2023/04/23 06:39:05;;;;;;;88.93;50.87;;;10.30;99.90;;;;;;5014020;28;20096;-81
2023/04/23 06:41:31;;;;;;;91.67;50.77;;;10.30;99.90;;;;;;5015550;28;20095;-81
2023/04/23 06:43:56;;;;;;;87.23;48.13;;;10.40;99.90;;;;;;5027032;28;20408;-81
2023/04/23 06:46:22;;;;;;;86.07;49.03;;;10.40;99.90;;;;;;5025377;28;20100;-81
2023/04/23 06:48:48;;;;;;;87.17;49.87;;;10.50;99.90;;;;;;5010762;28;20056;-81
2023/04/23 06:51:14;;;;;;;86.70;47.90;;;10.60;99.90;;;;;;5031190;28;20052;-82
2023/04/23 06:53:40;;;;;;;79.70;45.30;;;10.70;99.90;;;;;;5030856;28;20045;-82
2023/04/23 06:56:06;;;;;;;79.67;45.80;;;10.70;99.90;;;;;;4997091;28;20057;-82
2023/04/23 06:58:38;;;;;;;76.53;46.03;;;10.80;99.90;;;;;;5016510;28;20443;-81
2023/04/23 07:01:03;;;;;;;76.65;43.85;;;11.00;99.90;;;;;;4992920;28;20050;-81
2023/04/23 07:03:32;;;;;;;72.83;42.00;;;11.00;99.90;;;;;;5003800;28;20383;-81
2023/04/23 07:05:58;;;;;;;72.73;41.30;;;11.10;99.90;;;;;;5032529;28;20489;-82
2023/04/23 07:08:24;;;;;;;64.00;38.87;;;11.20;99.90;;;;;;5014454;28;20072;-81
2023/04/23 07:10:50;;;;;;;70.63;42.47;;;11.30;99.90;;;;;;5030884;28;20053;-81
2023/04/23 07:13:16;;;;;;;63.87;39.60;;;11.30;99.90;;;;;;5030735;28;20049;-80
2023/04/23 07:15:42;;;;;;;68.30;40.53;;;11.40;99.90;;;;;;5010410;28;20041;-81
2023/04/23 07:18:08;;;;;;;64.90;39.17;;;11.50;99.90;;;;;;5012673;28;20136;-81
2023/04/23 07:20:34;;;;;;;63.00;38.77;;;11.50;99.90;;;;;;5024849;28;20504;-81
2023/04/23 07:23:00;;;;;;;65.97;39.20;;;11.60;99.90;;;;;;5031205;28;20128;-81
2023/04/23 07:25:26;;;;;;;61.57;38.23;;;11.70;99.90;;;;;;5014560;28;20095;-81
2023/04/23 07:27:54;;;;;;;62.07;39.27;;;11.80;99.90;;;;;;5030567;28;20179;-81
2023/04/23 07:30:21;;;;;;;67.67;39.50;;;11.80;99.90;;;;;;5030132;28;20056;-81
2023/04/23 07:32:47;;;;;;;60.17;37.83;;;12.00;99.90;;;;;;5030003;28;20056;-81
2023/04/23 07:35:13;;;;;;;67.23;39.07;;;12.00;99.90;;;;;;5010779;28;20042;-81
2023/04/23 07:37:45;;;;;;;61.67;38.27;;;12.10;99.90;;;;;;5001784;28;20053;-81
2023/04/23 07:40:11;;;;;;;59.33;37.85;;;12.20;99.90;;;;;;4998294;28;20049;-81
2023/04/23 07:42:38;;;;;;;62.17;38.63;;;12.30;99.90;;;;;;4990389;28;20034;-80
2023/04/23 07:45:04;;;;;;;59.83;39.33;;;12.30;99.90;;;;;;5002525;28;20068;-81
2023/04/23 07:47:30;;;;;;;62.63;37.77;;;12.30;99.90;;;;;;5008912;28;20046;-82
2023/04/23 07:49:56;;;;;;;62.33;38.57;;;12.40;99.90;;;;;;5012926;28;20041;-81
2023/04/23 07:52:22;;;;;;;54.92;36.05;;;12.40;99.90;;;;;;5015519;28;20116;-81
2023/04/23 07:54:48;;;;;;;54.03;34.77;;;12.50;99.90;;;;;;5005756;28;20548;-81
2023/04/23 07:57:13;;;;;;;55.60;34.97;;;12.80;99.90;;;;;;5015425;28;20486;-82
2023/04/23 07:59:39;;;;;;;53.10;35.07;;;13.00;99.90;;;;;;5005841;28;20542;-81
2023/04/23 08:02:05;;;;;;;52.03;35.10;;;13.10;99.90;;;;;;5010577;28;20041;-82
2023/04/23 08:04:31;;;;;;;49.27;33.00;;;13.10;99.90;;;;;;5005483;28;20045;-81
2023/04/23 08:06:57;;;;;;;51.60;34.55;;;13.00;99.90;;;;;;5020222;28;20124;-82
2023/04/23 08:09:23;;;;;;;49.58;33.10;;;13.00;99.90;;;;;;5008959;28;20072;-82
2023/04/23 08:11:49;;;;;;;49.17;33.83;;;13.00;99.90;;;;;;5005177;28;20056;-82
2023/04/23 08:14:14;;;;;;;47.92;33.05;;;13.00;99.90;;;;;;5001690;28;20049;-82
2023/04/23 08:16:40;;;;;;;49.85;32.40;;;13.10;99.90;;;;;;5000775;28;20481;-82
2023/04/23 08:19:06;;;;;;;50.47;33.17;;;13.30;99.90;;;;;;4996988;28;20037;-81
2023/04/23 08:21:32;;;;;;;47.72;32.70;;;13.40;99.90;;;;;;5007005;28;20046;-82
2023/04/23 08:23:58;;;;;;;46.33;31.30;;;13.60;99.90;;;;;;5003733;28;20522;-81
2023/04/23 08:26:23;;;;;;;47.22;31.58;;;13.80;99.90;;;;;;5006125;28;20161;-81
2023/04/23 08:28:49;;;;;;;44.92;30.73;;;13.90;99.90;;;;;;5018699;28;20476;-81
2023/04/23 08:31:16;;;;;;;46.17;31.27;;;14.10;99.90;;;;;;5029837;28;20493;-81
2023/04/23 08:33:42;;;;;;;43.88;30.95;;;14.30;99.90;;;;;;5009124;28;20049;-81
2023/04/23 08:36:08;;;;;;;44.13;30.67;;;14.40;99.90;;;;;;5025091;28;20063;-81
2023/04/23 08:38:33;;;;;;;42.35;29.52;;;14.50;99.90;;;;;;5029631;28;20042;-81
2023/04/23 08:41:03;;;;;;;40.85;28.10;;;14.70;99.90;;;;;;5011877;28;20057;-81
2023/04/23 08:43:40;;;;;;;45.97;31.48;;;14.80;99.90;;;;;;5020206;28;20033;-82
2023/04/23 08:46:11;;;;;;;44.22;29.10;;;14.90;99.90;;;;;;5021997;28;20038;-81
2023/04/23 08:48:38;;;;;;;34.97;25.23;;;15.00;99.90;;;;;;5029733;28;20482;-82
2023/04/23 08:51:06;;;;;;;38.72;27.33;;;15.10;99.90;;;;;;5029757;28;20054;-81
2023/04/23 08:53:32;;;;;;;40.08;28.92;;;15.10;99.90;;;;;;5030125;28;20404;-81
2023/04/23 08:55:58;;;;;;;34.85;25.92;;;15.20;99.90;;;;;;5024026;28;20045;-82
2023/04/23 08:58:26;;;;;;;35.25;25.05;;;15.40;99.90;;;;;;5029748;28;20075;-81
2023/04/23 09:00:53;;;;;;;33.28;26.02;;;15.40;99.90;;;;;;5012165;28;20063;-82
2023/04/23 09:03:20;;;;;;;34.92;24.52;;;15.60;99.90;;;;;;5022610;28;20045;-83
2023/04/23 09:05:46;;;;;;;33.28;24.27;;;15.70;99.90;;;;;;5005985;28;20448;-83
2023/04/23 09:08:12;;;;;;;33.90;23.48;;;15.70;99.90;;;;;;5026113;28;20037;-83
2023/04/23 09:10:41;;;;;;;33.35;23.52;;;15.70;99.90;;;;;;4988853;28;20042;-82
2023/04/23 09:13:07;;;;;;;36.00;25.15;;;15.70;99.90;;;;;;5012664;28;20478;-81
2023/04/23 09:15:37;;;;;;;33.88;23.92;;;15.80;99.90;;;;;;5014330;28;20034;-81
2023/04/23 09:18:03;;;;;;;30.00;22.65;;;16.10;99.90;;;;;;5009967;28;20402;-82
2023/04/23 09:20:29;;;;;;;28.05;21.67;;;16.20;99.90;;;;;;5029822;28;20045;-82
2023/04/23 09:22:54;;;;;;;27.92;20.98;;;16.10;99.90;;;;;;4996770;28;20073;-82
2023/04/23 09:25:22;;;;;;;30.17;22.08;;;16.10;99.90;;;;;;5033135;28;20092;-83
2023/04/23 09:27:50;;;;;;;25.20;20.42;;;16.20;99.90;;;;;;5003871;28;20034;-83
2023/04/23 09:30:16;;;;;;;27.92;19.50;;;16.30;99.90;;;;;;5026294;28;20083;-82
2023/04/23 09:32:44;;;;;;;22.70;17.45;;;16.40;99.90;;;;;;5010982;28;20481;-83
2023/04/23 09:35:14;;;;;;;23.95;18.02;;;16.60;99.90;;;;;;5013400;28;20457;-82
2023/04/23 09:37:48;;;;;;;28.42;19.98;;;16.50;99.90;;;;;;5015246;28;20053;-82
2023/04/23 09:40:16;;;;;;;29.55;18.25;;;16.60;99.90;;;;;;4996953;28;20046;-83
2023/04/23 09:42:48;;;;;;;23.38;17.73;;;16.80;99.90;;;;;;5015093;28;20436;-82
2023/04/23 09:45:14;;;;;;;25.52;19.65;;;17.00;99.90;;;;;;5013307;28;20417;-83
2023/04/23 09:47:48;;;;;;;23.98;19.20;;;17.20;99.90;;;;;;5031594;28;20045;-82
2023/04/23 09:50:14;;;;;;;22.70;17.40;;;17.20;99.90;;;;;;5025180;28;20038;-82
2023/04/23 09:52:40;;;;;;;20.88;13.88;;;17.10;99.90;;;;;;5014121;28;20048;-82
2023/04/23 09:55:06;;;;;;;17.65;12.75;;;17.20;99.90;;;;;;5006825;28;20510;-82
2023/04/23 09:57:52;;;;;;;20.20;13.55;;;17.40;99.90;;;;;;4988645;28;20426;-83
2023/04/23 10:00:21;;;;;;;18.30;12.10;;;17.70;99.90;;;;;;5008773;28;20042;-84
2023/04/23 10:02:48;;;;;;;17.75;13.45;;;17.80;99.90;;;;;;5002503;28;20042;-83
2023/04/23 10:05:15;;;;;;;16.67;11.95;;;17.90;99.90;;;;;;5012783;28;20045;-82
2023/04/23 10:07:47;;;;;;;16.38;11.75;;;17.90;99.90;;;;;;5032526;28;20120;-83
2023/04/23 10:10:14;;;;;;;17.85;12.20;;;17.90;99.90;;;;;;5032420;28;20206;-82
2023/04/23 10:12:41;;;;;;;14.80;9.73;;;18.00;99.90;;;;;;5012805;28;20049;-82
2023/04/23 10:15:09;;;;;;;15.80;10.23;;;18.10;99.90;;;;;;5010611;28;20536;-83
2023/04/23 10:17:35;;;;;;;10.65;8.05;;;18.30;99.90;;;;;;5000518;28;20149;-85
2023/04/23 10:20:02;;;;;;;13.35;7.72;;;18.40;99.90;;;;;;5008896;28;20077;-83
2023/04/23 10:22:29;;;;;;;11.68;7.55;;;18.50;99.90;;;;;;5015474;28;20073;-84
2023/04/23 10:24:59;;;;;;;13.43;8.20;;;18.30;99.90;;;;;;5032112;28;20049;-85
2023/04/23 10:27:30;;;;;;;12.75;7.88;;;18.30;99.90;;;;;;5018070;28;20045;-84
2023/04/23 10:30:00;;;;;;;10.75;7.78;;;18.40;99.90;;;;;;4996933;28;20510;-84
2023/04/23 10:32:26;;;;;;;11.55;7.22;;;18.40;99.90;;;;;;5031563;28;20501;-84
2023/04/23 10:34:53;;;;;;;12.52;7.88;;;18.50;99.90;;;;;;5032394;28;20061;-84
2023/04/23 10:37:19;;;;;;;12.82;8.02;;;18.60;99.90;;;;;;5032015;28;20097;-84
2023/04/23 10:39:49;;;;;;;16.10;8.07;;;18.70;99.90;;;;;;5031677;28;20077;-84
2023/04/23 10:42:15;;;;;;;13.32;8.02;;;18.70;99.90;;;;;;5032281;28;20045;-86
2023/04/23 10:44:42;;;;;;;12.40;7.75;;;18.40;99.90;;;;;;5015367;28;20049;-83
2023/04/23 10:47:12;;;;;;;13.75;7.78;;;18.30;99.90;;;;;;5031881;28;20124;-84
2023/04/23 10:49:38;;;;;;;9.07;6.03;;;18.30;99.90;;;;;;5031666;28;20060;-84
2023/04/23 10:52:09;;;;;;;12.10;6.55;;;18.30;99.90;;;;;;5031713;28;20049;-85
2023/04/23 10:54:35;;;;;;;8.77;5.47;;;18.60;99.90;;;;;;5031384;28;20053;-84
2023/04/23 10:57:04;;;;;;;9.00;5.82;;;18.60;99.90;;;;;;5031445;28;20284;-84
2023/04/23 10:59:34;;;;;;;9.32;6.20;;;18.70;99.90;;;;;;5015261;28;20034;-85
2023/04/23 11:02:07;;;;;;;7.90;5.47;;;18.80;99.90;;;;;;5009876;28;20046;-84
2023/04/23 11:04:34;;;;;;;7.88;5.40;;;19.00;99.90;;;;;;5030166;28;20043;-84
2023/04/23 11:07:08;;;;;;;9.88;5.60;;;19.10;99.90;;;;;;5031143;28;20151;-83
2023/04/23 11:09:37;;;;;;;9.45;5.80;;;19.30;99.90;;;;;;5014833;28;20048;-84
2023/04/23 11:12:09;;;;;;;9.93;5.63;;;19.50;99.90;;;;;;5031131;28;20038;-83
2023/04/23 11:14:44;;;;;;;10.38;4.38;;;19.50;99.90;;;;;;5031544;28;20041;-84
2023/04/23 11:17:12;;;;;;;7.28;4.38;;;19.60;99.90;;;;;;5014778;28;20165;-84
2023/04/23 11:19:38;;;;;;;12.32;4.97;;;19.60;99.90;;;;;;4998338;28;20046;-85
2023/04/23 11:22:17;;;;;;;7.70;3.60;;;19.50;99.90;;;;;;5017750;28;20076;-84
2023/04/23 11:24:44;;;;;;;7.53;3.72;;;19.40;99.90;;;;;;5031375;28;20037;-84
2023/04/23 11:27:15;;;;;;;6.75;3.40;;;19.30;99.90;;;;;;5031237;28;20046;-86
2023/04/23 11:29:42;;;;;;;8.32;2.92;;;19.30;99.90;;;;;;5014474;28;20041;-84
2023/04/23 11:32:09;;;;;;;9.60;3.10;;;19.30;99.90;;;;;;5030999;28;20045;-84
2023/04/23 11:34:41;;;;;;;7.35;2.90;;;19.10;99.90;;;;;;5030911;28;20041;-83
2023/04/23 11:37:09;;;;;;;6.60;3.13;;;18.90;99.90;;;;;;5030823;28;20176;-84
2023/04/23 11:39:35;;;;;;;6.63;2.55;;;18.80;99.90;;;;;;5030879;28;20049;-85
2023/04/23 11:42:01;;;;;;;3.72;2.10;;;18.80;99.90;;;;;;5030879;28;20041;-85
2023/04/23 11:44:29;;;;;;;6.82;2.70;;;18.80;99.90;;;;;;5014611;28;20187;-84
2023/04/23 11:46:54;;;;;;;5.97;3.00;;;18.70;99.90;;;;;;5015376;28;20077;-86
2023/04/23 11:49:20;;;;;;;7.10;2.70;;;18.70;99.90;;;;;;5012660;28;20143;-85
2023/04/23 11:51:47;;;;;;;3.97;2.40;;;18.60;99.90;;;;;;5011080;28;20101;-85
2023/04/23 11:54:13;;;;;;;4.00;2.28;;;18.40;99.90;;;;;;5030475;28;20045;-85
2023/04/23 11:56:39;;;;;;;4.88;2.40;;;18.30;99.90;;;;;;5030906;28;20049;-84
2023/04/23 11:59:05;;;;;;;4.63;2.20;;;18.60;99.90;;;;;;5030324;28;20082;-83
2023/04/23 12:01:46;;;;;;;5.97;2.75;;;18.90;99.90;;;;;;5030495;28;20049;-85
2023/04/23 12:04:21;;;;;;;4.05;1.88;;;19.10;99.90;;;;;;5019577;28;20056;-84
2023/04/23 12:06:48;;;;;;;3.80;1.88;;;19.20;99.90;;;;;;5010969;28;20045;-85
2023/04/23 12:09:15;;;;;;;3.47;2.20;;;19.30;99.90;;;;;;5029040;28;20052;-85
2023/04/23 12:11:42;;;;;;;4.90;2.47;;;19.40;99.90;;;;;;5014001;28;20096;-85
2023/04/23 12:14:09;;;;;;;4.75;2.25;;;19.30;99.90;;;;;;5030505;28;20049;-85
2023/04/23 12:16:40;;;;;;;4.07;2.30;;;19.10;99.90;;;;;;5023722;28;20041;-84
2023/04/23 12:19:16;;;;;;;4.20;2.55;;;19.00;99.90;;;;;;5030447;28;20120;-85
2023/04/23 12:21:48;;;;;;;3.22;2.47;;;18.90;99.90;;;;;;5014338;28;20440;-84
2023/04/23 12:24:15;;;;;;;4.75;2.30;;;19.00;99.90;;;;;;5013880;28;20037;-84
2023/04/23 12:26:42;;;;;;;7.53;2.40;;;19.10;99.90;;;;;;5030051;28;20038;-83
2023/04/23 12:29:07;;;;;;;2.63;2.20;;;19.30;99.90;;;;;;4995789;28;20497;-85
2023/04/23 12:31:36;;;;;;;3.85;2.30;;;19.50;99.90;;;;;;5010969;28;20048;-85